Date,TemperatureHighF,TemperatureAvgF,TemperatureLowF,DewpointHighF,DewpointAvgF,DewpointLowF,HumidityHigh,HumidityAvg,HumidityLow,PressureMaxIn,PressureMinIn,WindSpeedMaxMPH,WindSpeedAvgMPH,GustSpeedMaxMPH,PrecipitationSumIn
2013-1-1,26.4,22.5,15.4,17.1,15.0,11.2,86,73,64,30.41,30.28,10,1,10,0.00
2013-1-2,26.2,19.2,11.0,14.9,11.4,6.3,82,72,54,30.45,30.39,11,1,11,0.00
2013-1-3,20.6,12.2,5.4,10.9,6.2,1.3,85,77,61,30.41,30.24,8,0,8,0.00
2013-1-4,23.0,14.8,4.4,16.5,8.9,0.5,85,78,66,30.32,30.24,11,1,11,0.00
2013-1-5,26.2,20.1,10.9,19.3,15.3,7.5,88,82,73,30.31,30.11,6,0,6,0.00
2013-1-6,33.7,26.8,19.0,24.5,21.0,15.9,89,79,65,30.11,29.98,17,1,17,0.00
2013-1-7,39.6,31.8,27.1,31.0,25.2,21.3,82,76,64,30.01,29.80,17,1,17,0.00
2013-1-8,40.7,36.7,32.6,28.7,25.8,20.5,84,65,47,30.06,29.81,23,2,23,0.04
2013-1-9,35.5,33.5,31.8,33.2,30.5,27.7,92,89,82,29.96,29.67,11,1,11,0.43
2013-1-10,33.5,28.4,18.8,30.8,24.6,11.6,91,85,71,29.81,29.65,13,2,13,0.01
2013-1-11,18.7,15.2,8.6,12.8,9.2,5.0,86,77,68,30.13,29.81,13,2,14,0.00
2013-1-12,13.9,9.0,6.5,7.8,4.1,1.4,86,80,74,30.24,30.12,5,0,5,0.00
2013-1-13,15.2,9.0,3.6,8.0,3.9,-0.4,85,80,71,30.31,30.22,6,0,6,0.00
2013-1-14,18.0,13.3,7.9,13.1,8.4,3.3,83,80,74,30.33,30.23,7,0,7,0.00
2013-1-15,29.4,21.8,17.1,22.4,16.9,13.0,88,81,74,30.47,30.33,13,1,13,0.00
2013-1-16,23.4,16.4,10.3,18.3,12.9,6.7,91,86,79,30.50,30.44,7,1,7,0.00
2013-1-17,25.0,15.1,7.3,18.8,11.4,3.7,91,85,77,30.52,30.31,6,0,7,0.00
2013-1-18,38.0,21.7,9.1,24.6,15.4,5.5,89,77,50,30.32,30.14,11,1,14,0.03
2013-1-19,34.5,22.6,12.1,21.9,16.7,8.7,90,79,55,30.38,30.27,6,0,6,0.00
2013-1-20,36.1,21.9,12.7,23.0,16.3,9.4,89,80,53,30.41,30.32,7,0,8,0.00
2013-1-21,32.4,19.6,9.2,21.9,14.4,5.7,90,81,61,30.33,30.18,6,0,6,0.00
2013-1-22,28.6,17.4,6.5,18.2,11.8,2.9,88,79,63,30.28,30.15,6,0,6,0.00
2013-1-23,32.9,23.4,15.3,22.4,15.9,10.7,83,73,53,30.19,29.99,10,1,10,0.00
2013-1-24,40.6,33.6,28.3,30.9,28.0,22.1,90,81,54,30.17,30.00,10,1,13,0.00
2013-1-26,36.3,33.3,30.9,32.9,30.7,28.3,92,90,85,29.91,29.87,10,1,10,0.11
2013-1-27,36.6,30.9,28.2,28.3,24.8,19.3,92,79,51,29.95,29.89,12,0,12,0.01
2013-1-28,34.9,29.6,26.0,24.4,21.3,16.0,86,72,47,29.94,29.81,11,1,11,0.00
2013-1-29,32.1,27.2,23.1,25.7,22.9,18.7,89,84,75,30.12,29.83,14,1,14,0.00
2013-1-30,39.4,33.0,26.8,30.7,27.6,22.8,90,81,64,30.13,30.03,19,2,19,0.30
2013-1-31,40.2,38.0,34.0,33.8,30.8,27.8,91,75,64,30.20,30.13,23,2,23,0.17
2013-2-1,41.1,36.8,32.7,32.4,29.2,25.1,92,75,54,30.38,30.12,16,1,16,0.09
2013-2-2,41.9,32.5,23.9,26.9,24.5,20.9,89,73,52,30.46,30.28,7,0,7,0.00
2013-2-3,42.0,29.7,20.4,27.3,23.3,17.6,91,78,53,30.28,30.07,7,0,7,0.00
2013-2-4,43.0,38.5,30.0,29.8,27.6,25.4,83,65,53,30.07,30.01,19,2,19,0.00
2013-2-5,42.6,35.9,30.3,34.4,28.9,22.1,86,76,50,30.03,29.83,16,1,16,0.01
2013-2-6,41.4,34.9,25.7,30.1,25.9,21.2,87,70,51,30.10,29.93,12,2,14,0.01
2013-2-7,38.4,30.3,25.3,24.5,21.8,19.3,84,71,51,30.09,29.94,12,2,13,0.00
2013-2-8,41.3,31.9,25.6,28.2,24.2,22.0,86,74,53,30.06,29.98,12,0,12,0.00
2013-2-9,33.5,30.9,27.6,25.8,22.4,19.2,84,71,59,30.11,29.96,16,1,16,0.00
2013-2-10,38.7,28.8,22.6,24.5,19.5,10.2,88,70,34,30.21,30.11,14,0,18,0.01
2013-2-11,33.0,29.0,24.6,23.3,19.5,16.1,75,67,59,30.18,30.12,10,0,10,0.00
2013-2-12,39.2,34.4,31.9,30.2,26.0,22.6,87,71,59,30.22,30.13,19,2,19,0.03
2013-2-13,41.8,37.8,33.0,33.4,29.4,26.1,86,72,59,30.24,30.07,20,2,20,0.11
2013-2-14,39.7,34.7,29.1,27.5,24.1,18.6,84,66,44,30.42,30.24,18,1,18,0.01
2013-2-15,45.1,36.9,26.5,28.9,25.7,22.9,88,64,49,30.46,30.31,14,1,14,0.00
2013-2-16,43.9,32.2,21.9,33.1,26.2,19.1,91,79,57,30.31,29.85,23,1,23,0.07
2013-2-17,34.1,31.9,28.9,30.0,26.8,23.3,90,81,68,30.10,29.90,19,1,19,0.05
2013-2-18,40.3,31.7,25.6,26.1,23.0,17.0,91,72,40,30.11,29.86,7,1,11,0.08
2013-2-19,42.4,32.9,27.9,25.6,20.9,14.7,81,62,35,29.86,29.70,13,2,13,0.00
2013-2-20,37.6,31.6,27.4,27.3,22.4,16.8,90,70,45,29.97,29.82,13,0,13,0.01
2013-2-21,36.0,28.1,18.5,23.7,18.1,13.7,84,67,43,30.06,29.94,12,1,13,0.00
2013-2-22,41.9,34.7,28.2,26.1,22.8,19.3,81,63,42,30.00,29.71,24,2,24,0.00
2013-2-23,38.6,32.2,24.7,29.6,19.6,14.4,88,60,45,30.17,29.68,23,2,23,0.01
2013-2-24,36.2,29.5,24.5,20.4,18.6,16.4,80,64,45,30.25,30.14,16,1,16,0.00
2013-2-25,40.4,31.8,24.8,25.8,19.6,16.8,80,61,43,30.14,29.92,16,2,16,0.00
2013-2-26,34.8,30.7,25.5,25.9,22.7,17.0,87,73,49,30.28,30.05,12,1,12,0.02
2013-2-27,40.0,28.7,20.3,21.8,18.4,16.0,85,67,43,30.29,30.23,10,0,11,0.00
2013-2-28,43.1,33.5,25.4,32.1,27.5,19.6,90,79,58,30.35,30.25,7,0,7,0.04
2013-3-1,53.1,42.2,34.5,37.6,33.3,29.5,87,72,50,30.38,30.32,20,2,20,0.00
2013-3-2,51.9,39.1,28.2,37.6,31.4,25.8,92,76,48,30.35,29.98,7,0,7,0.13
2013-3-3,39.9,35.0,28.0,37.1,23.9,11.0,92,67,37,30.12,29.84,22,2,22,0.03
2013-3-4,36.2,27.8,16.5,24.2,15.7,10.6,89,63,37,30.31,30.12,14,2,17,0.01
2013-3-5,39.2,29.5,17.7,18.5,12.7,9.5,71,51,33,30.19,29.93,18,6,18,0.00
2013-3-6,42.2,34.6,29.3,33.7,25.9,16.9,92,72,49,29.93,29.71,20,3,20,0.15
2013-3-7,44.5,35.1,24.8,31.5,25.1,17.4,92,70,36,30.08,29.85,14,1,14,0.10
2013-3-8,46.8,31.2,20.5,23.6,19.8,14.3,89,66,27,30.08,29.94,13,0,16,0.00
2013-3-9,47.9,35.2,22.8,25.6,21.3,18.9,87,60,33,30.37,30.07,22,1,22,0.00
2013-3-10,47.5,36.0,23.7,30.9,23.4,19.7,87,63,34,30.40,30.17,23,2,23,0.02
2013-3-11,47.7,38.8,29.0,31.1,22.2,11.2,89,56,24,30.25,30.15,19,2,19,0.00
2013-3-12,48.7,37.3,26.8,36.8,27.5,18.2,85,68,56,30.24,30.10,20,2,20,0.01
2013-3-13,59.7,46.7,38.3,37.5,32.8,26.8,83,61,30,30.20,30.15,14,1,14,0.00
2013-3-14,60.3,43.9,29.2,35.4,30.3,26.0,89,62,35,30.22,30.01,6,0,6,0.00
2013-3-15,55.7,48.6,37.8,35.0,30.9,24.2,70,51,35,30.14,30.04,20,2,20,0.00
2013-3-16,49.4,40.4,33.1,34.7,30.6,26.7,87,69,47,30.09,29.74,16,1,22,0.01
2013-3-17,38.7,34.0,29.7,33.5,20.8,15.7,86,59,44,30.00,29.68,17,2,18,0.02
2013-3-18,39.5,31.8,28.7,26.2,19.9,11.2,87,63,33,30.09,29.95,20,2,20,0.00
2013-3-19,44.7,33.8,22.7,25.6,20.9,10.4,88,63,26,30.27,30.02,17,2,17,0.17
2013-3-20,53.9,38.1,32.0,38.4,26.9,20.1,86,65,43,30.02,29.56,20,3,20,0.21
2013-3-21,38.7,34.1,29.5,27.7,18.3,9.5,71,53,31,30.01,29.78,19,2,19,0.00
2013-3-22,38.1,28.9,25.5,23.3,20.0,12.4,86,70,36,30.19,29.99,11,1,11,0.00
2013-3-23,37.1,26.8,20.0,21.9,17.3,12.7,84,68,42,30.30,30.18,14,2,14,0.09
2013-3-24,39.2,27.3,19.0,20.1,13.5,3.1,86,60,22,30.34,30.19,8,1,12,0.00
2013-3-25,47.5,31.5,17.4,23.3,15.5,11.4,78,55,27,30.22,30.02,10,1,10,0.00
2013-3-26,55.3,40.0,29.6,26.1,23.5,19.5,78,55,27,30.04,29.94,14,0,14,0.00
2013-3-27,58.3,40.8,26.5,34.0,27.4,22.8,86,62,32,30.06,29.98,10,1,11,0.00
2013-3-28,55.7,44.3,34.6,39.6,34.5,30.0,84,70,44,30.13,30.05,12,1,13,0.00
2013-3-29,56.7,44.5,35.1,39.5,33.8,28.7,90,69,39,30.23,30.12,12,1,12,0.00
2013-3-30,59.9,44.8,30.3,35.1,29.9,25.1,92,61,28,30.31,30.15,10,1,10,0.00
2013-3-31,64.6,45.4,27.4,32.2,27.9,23.1,92,57,22,30.19,29.99,13,1,13,0.00
2013-4-1,65.5,49.5,35.0,32.3,27.0,20.4,70,45,18,30.08,29.97,16,3,17,0.00
2013-4-2,65.5,47.4,28.6,36.4,30.4,25.5,89,57,26,30.14,30.01,13,1,14,0.00
2013-4-3,64.1,50.4,38.8,39.5,33.0,26.1,81,55,25,30.16,29.95,14,1,14,0.00
2013-4-4,63.3,48.7,36.0,44.5,34.9,29.5,88,62,33,29.99,29.75,18,2,18,0.01
2013-4-5,54.6,47.5,42.1,42.5,36.7,31.6,91,67,45,29.87,29.74,25,2,25,0.03
2013-4-6,50.4,42.3,38.3,41.9,35.3,30.0,91,77,53,29.87,29.80,20,1,20,0.18
2013-4-7,45.8,38.6,33.5,40.7,33.6,30.0,89,82,69,29.83,29.59,17,1,17,0.20
2013-4-8,41.4,34.5,26.4,33.1,16.5,7.2,89,50,31,30.17,29.73,26,7,28,0.03
2013-4-9,48.9,33.8,21.5,23.5,12.4,3.7,72,43,18,30.28,30.11,22,4,22,0.00
2013-4-10,52.5,40.6,30.9,40.1,30.2,23.0,85,68,43,30.14,29.78,20,1,20,0.06
2013-4-11,46.7,43.0,39.1,36.1,28.9,21.7,75,58,40,30.01,29.86,20,2,20,0.00
2013-4-12,54.2,42.9,30.7,32.4,25.2,15.0,86,54,23,30.02,29.56,12,1,12,0.00
2013-4-13,46.0,39.2,30.9,34.8,24.7,13.4,87,58,31,29.73,29.50,23,2,23,0.01
2013-4-14,41.6,34.2,29.4,31.0,26.6,17.3,89,74,55,29.85,29.73,17,2,18,0.08
2013-4-15,39.4,31.2,25.1,17.3,10.3,5.1,60,43,27,30.05,29.85,22,6,23,0.00
2013-4-16,40.1,30.7,20.1,12.3,8.3,3.8,65,40,26,30.22,30.04,20,4,20,0.00
2013-4-17,46.6,32.5,17.8,14.0,8.0,-1.1,71,39,15,30.28,30.14,11,1,16,0.00
2013-4-18,53.2,37.9,21.4,23.2,17.9,12.9,76,48,25,30.21,30.13,14,1,14,0.00
2013-4-19,51.7,43.3,36.2,40.1,32.2,22.9,86,66,46,30.13,29.85,20,2,20,0.05
2013-4-20,50.2,46.7,45.4,32.0,29.5,27.5,59,51,44,30.00,29.94,17,3,17,0.06
2013-4-21,49.1,38.2,25.9,36.0,29.7,16.8,89,72,51,30.17,29.91,23,3,23,0.04
2013-4-22,42.1,30.6,19.9,20.6,16.3,11.0,82,57,35,30.34,30.17,17,2,17,0.07
2013-4-23,49.6,33.7,19.5,26.2,19.8,15.7,88,61,27,30.29,30.10,22,1,22,0.00
2013-4-24,60.2,42.0,23.8,27.1,22.1,13.8,91,53,18,30.23,29.93,22,1,22,0.00
2013-4-25,66.0,50.2,34.2,30.4,24.4,16.6,72,41,16,30.02,29.84,17,2,17,0.00
2013-4-26,71.0,52.4,31.3,33.7,29.3,24.8,88,48,19,30.13,30.02,19,2,19,0.00
2013-4-27,67.2,53.5,37.0,38.9,29.5,20.4,82,45,18,30.09,29.94,22,2,22,0.00
2013-4-28,56.9,50.8,46.3,38.9,33.4,27.8,74,52,34,30.01,29.83,17,3,25,0.03
2013-4-29,50.4,44.0,36.3,36.4,28.2,18.0,81,55,36,29.84,29.63,28,4,28,0.05
2013-4-30,45.2,35.4,29.9,28.2,22.2,14.4,89,61,30,30.22,29.84,14,1,14,0.00
2013-5-1,51.9,38.9,30.2,30.6,24.6,15.6,90,62,26,30.50,30.21,14,1,14,0.08
2013-5-2,64.8,44.8,24.3,25.6,20.4,7.3,88,48,11,30.53,30.20,11,1,11,0.00
2013-5-3,57.7,47.4,39.0,42.9,34.4,22.5,86,62,36,30.20,30.14,12,1,13,0.01
2013-5-4,61.1,50.3,38.5,39.9,33.4,26.4,91,58,29,30.24,30.09,22,3,22,0.00
2013-5-5,70.8,56.2,37.9,35.5,30.5,24.9,77,42,19,30.10,29.87,17,3,17,0.00
2013-5-6,77.7,58.5,40.2,37.2,29.2,14.7,73,40,10,29.98,29.75,7,2,11,0.00
2013-5-7,71.5,48.5,36.9,37.1,34.0,32.1,85,61,26,29.91,29.82,6,0,7,0.00
2013-5-8,79.8,68.4,51.4,36.5,32.4,23.3,56,30,15,30.01,29.92,10,1,10,0.00
2013-5-9,81.5,60.5,41.7,42.9,38.6,30.9,83,50,18,30.11,29.98,12,1,13,0.00
2013-5-10,79.9,60.6,41.1,44.6,37.4,28.6,89,51,18,30.23,30.06,20,2,20,0.00
2013-5-11,82.7,62.9,46.0,43.9,38.3,30.9,70,45,18,30.21,29.93,11,2,11,0.00
2013-5-12,84.4,65.1,45.2,45.9,41.9,37.1,85,48,23,30.03,29.82,18,1,18,0.00
2013-5-13,79.6,63.0,50.1,59.8,45.6,37.8,84,56,28,29.91,29.55,26,2,26,0.30
2013-5-14,65.7,55.7,45.5,38.0,30.5,21.4,61,40,21,29.90,29.77,19,2,19,0.00
2013-5-15,66.3,51.5,35.4,37.7,32.5,25.7,85,53,28,29.98,29.77,8,0,8,0.00
2013-5-16,61.0,49.8,42.5,44.3,39.4,35.3,89,70,40,29.86,29.75,8,0,8,0.11
2013-5-17,51.2,46.2,39.8,47.0,42.1,36.8,91,86,77,29.85,29.78,4,0,4,0.21
2013-5-18,56.9,49.4,45.7,47.9,44.9,41.8,92,85,65,29.97,29.84,8,0,10,0.18
2013-5-19,61.2,50.8,42.6,43.1,40.8,38.8,89,70,45,30.13,29.96,13,1,13,0.00
2013-5-20,71.5,57.7,42.1,44.0,39.4,32.1,88,55,25,30.17,29.95,16,2,16,0.00
2013-5-21,73.7,59.0,45.5,46.9,40.3,31.7,77,52,23,29.96,29.59,23,5,23,0.03
2013-5-22,60.6,49.0,38.7,44.7,40.2,34.6,90,73,50,29.92,29.57,17,2,17,1.05
2013-5-23,59.8,47.0,37.1,36.3,31.4,15.9,91,61,19,29.93,29.81,8,1,10,0.00
2013-5-24,62.1,48.6,36.1,37.7,33.3,26.0,89,58,27,29.95,29.80,31,2,31,0.00
2013-5-25,63.4,47.6,31.7,36.1,31.5,26.8,91,59,27,29.98,29.87,12,1,12,0.00
2013-5-26,71.6,50.1,35.4,50.3,39.5,32.1,89,71,26,29.95,29.76,7,0,7,0.24
2013-5-27,65.8,56.0,47.0,46.5,42.1,34.6,90,63,32,29.88,29.71,11,1,11,0.03
2013-5-28,63.7,51.7,47.7,48.7,45.6,39.7,91,81,43,29.77,29.71,10,0,12,0.49
2013-5-29,70.2,54.4,44.4,46.8,40.7,28.8,92,66,23,29.78,29.57,17,1,17,0.03
2013-5-30,58.1,51.3,46.3,41.5,37.6,30.5,79,61,36,29.99,29.78,22,2,22,0.04
2013-5-31,62.4,53.6,46.6,40.1,34.8,29.3,69,51,30,30.17,29.99,18,1,18,0.00
2013-6-1,69.1,54.0,36.7,42.9,35.4,27.1,88,55,23,30.20,29.93,12,1,12,0.00
2013-6-2,59.3,51.1,45.0,48.4,44.1,39.2,90,77,55,29.94,29.78,10,1,12,0.22
2013-6-3,60.1,50.4,45.0,48.9,44.3,40.8,91,80,56,30.03,29.87,23,1,23,0.24
2013-6-4,68.8,55.4,46.8,42.2,37.9,29.6,84,56,25,30.12,30.02,14,3,17,0.01
2013-6-5,78.6,59.3,39.7,47.1,39.4,35.2,85,53,23,30.09,29.88,10,1,10,0.00
2013-6-6,82.5,64.6,47.1,51.7,43.7,37.8,84,52,22,30.01,29.85,8,0,8,0.00
2013-6-7,77.3,65.2,50.1,51.1,45.1,39.1,88,53,27,29.91,29.75,18,2,18,0.00
2013-6-8,78.7,66.5,49.1,41.3,32.2,24.3,67,31,15,29.95,29.83,24,2,24,0.00
2013-6-9,80.5,64.1,44.7,42.7,31.1,3.8,81,36,6,29.91,29.74,20,2,20,0.00
2013-6-10,81.2,61.6,40.2,38.9,28.6,5.0,81,37,9,29.88,29.64,10,1,10,0.00
2013-6-11,81.2,62.2,47.1,42.4,37.8,25.6,71,45,15,29.91,29.70,25,1,25,0.00
2013-6-12,71.8,59.2,48.5,45.3,41.4,36.8,80,55,30,29.94,29.85,11,1,11,0.00
2013-6-13,62.4,51.6,45.3,47.9,44.2,35.3,90,77,37,30.00,29.87,18,1,18,0.40
2013-6-14,63.2,50.7,39.6,44.5,37.2,27.3,92,65,27,30.05,29.98,17,1,17,0.00
2013-6-15,77.2,56.5,35.6,42.2,34.3,21.9,92,52,15,30.07,29.87,11,1,11,0.00
2013-6-16,83.3,63.0,42.8,43.0,35.7,18.8,79,45,11,30.03,29.89,10,1,10,0.00
2013-6-17,87.1,70.1,53.9,45.7,40.3,25.0,67,38,11,29.98,29.78,18,3,18,0.00
2013-6-18,84.8,66.7,54.0,51.9,45.3,39.8,74,49,22,29.81,29.63,11,1,11,0.00
2013-6-19,58.9,53.4,48.1,51.3,46.4,42.0,90,78,56,29.80,29.63,22,1,22,0.25
2013-6-20,60.7,49.7,43.7,43.3,40.2,33.8,90,72,37,30.00,29.77,14,1,14,0.29
2013-6-21,69.3,53.2,38.3,42.8,37.2,30.4,91,61,25,30.03,29.92,19,1,19,0.00
2013-6-22,69.1,54.8,39.5,44.0,40.0,35.4,92,62,30,30.01,29.90,11,1,11,0.00
2013-6-23,73.9,59.0,39.9,48.1,40.8,36.8,91,56,27,29.93,29.66,6,1,10,0.00
2013-6-24,74.8,61.3,55.3,54.0,49.6,43.2,90,67,37,29.70,29.58,16,1,17,0.17
2013-6-25,71.8,58.6,52.5,53.7,49.8,43.1,92,75,37,29.88,29.69,12,1,12,0.55
2013-6-26,68.5,58.3,52.0,56.5,51.3,47.2,92,79,51,30.08,29.88,10,0,10,0.08
2013-6-27,84.7,66.8,49.2,54.6,49.7,44.3,92,60,26,30.15,30.06,11,0,11,0.00
2013-6-28,91.5,71.0,51.0,57.4,49.8,44.0,88,53,21,30.22,30.02,7,0,7,0.00
2013-6-29,88.7,71.4,58.0,57.8,52.7,42.3,77,55,21,30.11,29.90,14,2,16,0.00
2013-6-30,92.6,74.8,57.1,59.1,54.1,45.1,89,55,21,30.05,29.82,7,0,7,0.00
2013-7-1,99.3,79.1,61.4,57.9,48.4,15.5,74,43,6,29.97,29.80,13,2,13,0.00
2013-7-2,99.6,80.7,64.0,62.5,54.7,43.1,74,45,15,29.92,29.73,6,1,10,0.00
2013-7-3,93.5,76.9,60.8,60.5,50.6,31.9,86,48,13,29.85,29.70,13,1,17,0.00
2013-7-4,89.3,72.8,55.5,51.6,42.7,26.9,80,41,14,29.79,29.59,19,1,19,0.00
2013-7-5,85.8,69.9,50.1,43.9,36.5,21.1,74,33,13,29.72,29.54,10,1,11,0.00
2013-7-6,85.5,67.7,48.8,42.8,35.9,14.0,76,38,9,29.78,29.60,12,1,12,0.00
2013-7-7,88.2,69.5,48.3,44.5,39.9,30.3,76,40,14,29.76,29.60,11,1,11,0.00
2013-7-8,82.8,67.2,55.0,56.2,45.1,28.7,90,50,15,29.90,29.68,22,2,22,0.27
2013-7-9,86.7,67.8,47.9,48.0,42.3,32.3,87,47,15,30.00,29.83,11,1,11,0.00
2013-7-10,95.5,72.6,49.6,47.0,39.8,23.3,78,40,8,29.91,29.58,13,1,13,0.00
2013-7-11,81.9,70.9,54.7,51.2,40.3,23.6,76,37,13,29.70,29.63,12,1,20,0.00
2013-7-12,85.3,64.8,49.5,56.3,45.8,32.9,81,55,17,29.75,29.61,10,1,14,0.13
2013-7-13,81.8,65.4,50.8,52.5,37.1,18.7,89,47,10,29.91,29.73,13,1,13,0.00
2013-7-14,87.7,67.7,48.9,41.5,32.6,4.2,72,35,4,29.97,29.75,11,1,11,0.00
2013-7-15,91.0,70.4,47.9,41.7,34.5,20.4,72,34,9,29.84,29.67,18,1,18,0.00
2013-7-16,88.0,73.8,61.4,48.0,42.6,36.8,47,34,21,29.92,29.74,22,7,23,0.00
2013-7-17,93.8,78.9,64.1,54.2,47.6,36.6,65,36,17,29.89,29.73,19,4,19,0.00
2013-7-18,91.6,73.9,52.4,45.9,35.0,11.4,74,31,6,29.98,29.84,14,1,14,0.00
2013-7-19,91.5,71.2,48.9,41.7,33.0,14.4,72,32,6,29.95,29.75,20,1,21,0.00
2013-7-20,92.8,72.0,49.3,42.5,32.7,5.5,72,32,4,29.85,29.64,10,1,10,0.00
2013-7-21,94.5,72.7,48.6,43.9,32.5,8.5,72,30,5,29.76,29.60,12,1,13,0.00
2013-7-22,92.5,71.7,47.7,44.6,33.0,17.8,65,29,9,29.78,29.67,12,1,13,0.00
2013-7-23,93.5,72.3,49.1,44.9,35.7,14.0,70,32,7,29.92,29.76,10,1,10,0.00
2013-7-24,96.7,74.5,52.0,38.6,26.6,-8.6,54,25,2,29.88,29.72,11,1,11,0.00
2013-7-25,95.0,77.7,60.9,46.8,35.2,17.5,51,26,7,29.91,29.77,13,3,15,0.00
2013-7-26,94.8,73.9,50.7,40.6,33.3,-2.2,65,29,4,29.96,29.77,17,1,18,0.00
2013-7-27,89.9,71.7,50.2,47.6,36.8,27.9,64,31,13,29.84,29.66,18,1,19,0.00
2013-7-28,86.0,68.5,48.7,45.6,37.5,25.1,70,36,15,29.74,29.60,12,1,13,0.00
2013-7-29,84.5,69.5,50.9,46.1,36.9,21.1,61,34,11,29.79,29.67,17,3,18,0.00
2013-7-30,85.0,68.9,57.0,48.0,39.3,30.2,56,36,19,29.94,29.77,14,2,15,0.00
2013-7-31,92.2,70.8,52.6,46.3,39.7,24.4,61,37,11,30.00,29.77,16,2,16,0.00
2013-8-1,72.6,63.2,54.0,59.5,50.5,39.4,96,66,32,29.86,29.73,19,2,19,0.35
2013-8-2,68.8,57.0,49.2,56.2,51.1,48.3,98,83,52,29.90,29.74,22,0,22,0.03
2013-8-3,77.5,61.3,46.3,52.6,48.2,44.4,94,66,35,29.95,29.84,10,1,10,0.00
2013-8-4,84.0,64.9,46.4,52.0,46.6,40.6,95,59,23,29.93,29.77,11,1,11,0.00
2013-8-5,86.3,66.5,47.5,47.8,45.0,41.3,87,51,21,29.87,29.70,17,1,17,0.00
2013-8-6,86.0,68.2,48.8,50.4,45.9,38.6,88,51,19,29.87,29.76,12,1,12,0.00
2013-8-7,90.0,69.4,48.5,49.1,44.2,38.9,84,47,18,29.84,29.69,11,1,11,0.00
2013-8-8,89.2,70.9,50.9,51.0,44.8,37.6,76,44,18,29.85,29.71,19,2,20,0.00
2013-8-9,88.0,72.3,58.1,55.5,51.4,44.1,90,51,24,29.86,29.69,28,6,29,0.23
2013-8-10,89.5,69.8,54.9,56.6,51.3,43.2,92,59,21,29.87,29.71,10,2,17,0.00
2013-8-11,82.6,69.2,57.2,53.9,49.2,43.3,70,50,29,29.86,29.76,12,1,12,0.00
2013-8-12,89.2,69.2,53.9,60.6,48.0,42.3,79,50,20,29.89,29.75,32,2,32,0.05
2013-8-13,85.8,70.4,58.0,51.8,47.3,39.3,76,48,20,29.95,29.80,13,1,13,0.00
2013-8-14,90.4,69.7,50.2,49.4,43.3,34.4,82,45,14,29.92,29.75,11,1,11,0.00
2013-8-15,95.8,74.0,53.8,42.8,36.9,28.0,54,30,10,29.86,29.68,12,2,12,0.00
2013-8-16,93.3,72.7,49.9,48.9,41.8,35.3,70,37,15,29.83,29.70,17,1,17,0.00
2013-8-17,88.6,72.9,54.1,52.6,48.0,42.0,81,45,23,29.90,29.72,18,1,18,0.00
2013-8-18,88.5,71.9,53.6,55.2,47.6,37.3,91,49,19,29.90,29.76,26,1,28,0.01
2013-8-19,88.9,70.1,49.0,47.3,43.2,38.4,81,43,20,29.89,29.72,22,1,22,0.00
2013-8-20,86.5,70.0,51.6,48.4,42.6,35.3,78,41,20,29.86,29.74,17,1,17,0.00
2013-8-21,88.0,67.0,45.7,40.9,37.5,26.7,75,39,12,29.93,29.77,10,0,10,0.00
2013-8-22,87.9,65.6,51.6,44.9,39.7,36.7,65,42,18,29.89,29.66,14,1,14,0.00
2013-8-23,86.1,70.7,56.1,54.9,48.4,43.2,80,48,28,29.81,29.59,14,2,14,0.01
2013-8-24,87.5,70.7,50.1,51.4,45.7,38.8,88,47,18,29.76,29.58,7,0,7,0.00
2013-8-25,89.7,69.4,57.8,57.1,47.3,41.6,89,50,19,29.82,29.62,17,2,18,0.24
2013-8-26,83.5,66.9,53.7,55.8,51.5,43.5,92,63,27,29.86,29.69,8,1,8,0.00
2013-8-27,89.4,68.4,50.5,50.5,45.8,38.1,82,50,17,29.84,29.67,17,1,18,0.00
2013-8-28,82.5,69.3,59.1,54.4,49.8,45.1,65,51,33,29.85,29.72,10,1,10,0.00
2013-8-29,92.7,67.7,56.2,60.6,52.5,45.1,95,63,20,29.88,29.69,26,2,26,0.10
2013-8-30,81.8,64.7,49.5,57.0,49.8,41.4,98,65,28,29.94,29.82,20,1,20,0.00
2013-8-31,84.8,65.1,45.5,49.9,45.5,42.0,89,54,25,29.97,29.77,7,0,8,0.00
2013-9-1,93.5,71.0,51.1,47.7,42.5,36.3,66,40,14,29.87,29.65,12,2,12,0.00
2013-9-2,82.8,70.7,59.4,50.5,44.5,39.8,54,40,28,29.78,29.69,16,1,16,0.00
2013-9-3,78.8,66.8,57.7,60.6,52.7,48.2,75,61,38,29.89,29.78,11,1,11,0.00
2013-9-4,89.7,72.6,57.3,58.5,52.7,42.9,85,55,21,29.93,29.77,11,1,11,0.00
2013-9-5,75.6,68.8,60.9,63.8,55.2,48.7,88,62,49,29.89,29.76,19,2,19,0.03
2013-9-6,79.5,67.5,57.2,60.2,55.8,48.2,94,69,43,29.87,29.76,16,2,16,0.01
2013-9-7,81.0,67.3,53.9,52.7,48.5,43.3,82,54,28,29.91,29.73,12,1,12,0.00
2013-9-8,66.2,56.4,49.5,55.4,50.4,44.9,95,81,58,29.88,29.78,20,1,20,0.15
2013-9-9,76.6,62.8,53.6,54.2,51.4,47.5,96,70,37,29.88,29.78,12,1,12,0.03
2013-9-10,82.3,62.3,45.6,51.9,47.1,41.0,96,64,25,29.94,29.81,8,1,8,0.00
2013-9-11,86.2,69.1,52.7,48.8,45.2,40.1,78,48,22,30.01,29.90,18,3,19,0.00
2013-9-12,87.3,72.1,55.9,48.2,45.4,42.6,64,41,22,29.97,29.73,16,3,18,0.00
2013-9-13,87.0,70.9,54.5,50.9,45.7,35.9,70,44,17,29.77,29.59,14,2,15,0.00
2013-9-14,78.2,67.5,54.6,52.4,48.3,44.7,79,52,32,29.83,29.69,18,2,19,0.00
2013-9-15,85.2,70.6,54.4,58.0,48.6,44.0,71,47,29,29.84,29.61,17,3,18,0.01
2013-9-16,83.6,68.7,55.7,55.5,49.9,38.8,91,56,21,29.74,29.57,19,2,21,0.01
2013-9-17,68.5,56.8,45.8,53.2,47.4,42.4,92,72,51,29.68,29.42,20,2,23,0.02
2013-9-18,56.4,50.5,48.0,47.6,46.1,40.6,96,86,65,29.68,29.54,14,1,19,0.35